Time;durP1;ratioP1;P1;durP2;ratioP2;P2;SDS_P1;SDS_P2;PMS_P1;PMS_P2;Temp;Humidity;BMP_temperature;BMP_pressure;BME280_temperature;BME280_humidity;BME280_pressure;Samples;Min_cycle;Max_cycle;Signal;HPM_P1;HPM_P2
2024/02/09 00:02:07;;;;;;;;;;;;;;;15.72;44.90;100083.56;4903212;29;887;-57
2024/02/09 00:04:38;;;;;;;;;;;;;;;16.28;45.80;100079.09;4891070;29;1011;-57
2024/02/09 00:07:04;;;;;;;;;;;;;;;17.65;42.84;100086.34;4903362;29;1226;-56
2024/02/09 00:09:29;;;;;;;;;;;;;;;16.18;45.54;100080.84;4890727;29;1090;-58
2024/02/09 00:11:55;;;;;;;;;;;;;;;15.83;45.29;100079.22;4891946;29;1097;-57
2024/02/09 00:14:20;;;;;;;;;;;;;;;15.95;45.83;100077.41;4886306;29;1975;-57
2024/02/09 00:16:46;;;;;;;;;;;;;;;16.75;44.39;100075.25;4884674;29;1058;-57
2024/02/09 00:19:12;;;;;;;;;;;;;;;15.99;45.49;100073.53;4901315;29;1406;-56
2024/02/09 00:21:37;;;;;;;;;;;;;;;15.66;45.37;100071.63;4903150;29;1075;-57
2024/02/09 00:24:03;;;;;;;;;;;;;;;15.59;45.06;100077.56;4902210;29;1071;-57
2024/02/09 00:26:28;;;;;;;;;;;;;;;17.58;43.60;100072.75;4895355;29;1062;-57
2024/02/09 00:28:54;;;;;;;;;;;;;;;16.20;45.57;100073.59;4902868;29;1101;-56
2024/02/09 00:31:23;;;;;;;;;;;;;;;15.79;45.63;100075.97;4892068;29;1126;-54
2024/02/09 00:33:48;;;;;;;;;;;;;;;17.53;43.67;100074.97;4884058;29;1964;-56
2024/02/09 00:36:14;;;;;;;;;;;;;;;16.40;45.14;100071.94;4885440;29;1035;-57
2024/02/09 00:38:40;;;;;;;;;;;;;;;15.86;45.52;100071.88;4902512;29;1093;-56
2024/02/09 00:41:07;;;;;;;;;;;;;;;15.77;45.16;100067.28;4891824;29;1173;-56
2024/02/09 00:43:33;;;;;;;;;;;;;;;16.40;45.52;100068.44;4902001;29;1182;-56
2024/02/09 00:46:01;;;;;;;;;;;;;;;17.16;43.85;100066.56;4891146;29;1069;-56
2024/02/09 00:48:26;;;;;;;;;;;;;;;15.97;45.75;100059.53;4886821;29;1235;-55
2024/02/09 00:50:52;;;;;;;;;;;;;;;15.77;45.25;100061.97;4895560;29;1201;-55
2024/02/09 00:53:18;;;;;;;;;;;;;;;15.57;45.44;100058.28;4902286;29;1907;-56
2024/02/09 00:55:43;;;;;;;;;;;;;;;17.23;44.18;100050.94;4902881;29;1046;-56
2024/02/09 00:58:11;;;;;;;;;;;;;;;16.60;44.80;100052.66;4897710;29;1110;-56
2024/02/09 01:00:40;;;;;;;;;;;;;;;15.97;45.52;100051.56;4886160;29;1081;-56
2024/02/09 01:03:07;;;;;;;;;;;;;;;17.17;44.33;100041.66;4890179;29;1102;-57
2024/02/09 01:05:33;;;;;;;;;;;;;;;16.51;45.24;100041.84;4902486;29;1070;-57
2024/02/09 01:07:59;;;;;;;;;;;;;;;15.96;45.30;100037.47;4896094;29;1042;-56
2024/02/09 01:10:25;;;;;;;;;;;;;;;15.82;45.02;100033.28;4895693;29;1166;-56
2024/02/09 02:45:42;;;;;;;;;;;;;;;16.74;44.50;100036.41;4901035;29;1174;-57
2024/02/09 03:04:32;;;;;;;;;;;;;;;15.57;44.34;100052.97;4900573;29;1146;-57
2024/02/09 03:06:58;;;;;;;;;;;;;;;17.35;43.75;100044.53;4900642;29;1155;-57
2024/02/09 03:09:23;;;;;;;;;;;;;;;16.51;44.79;100044.50;4888266;29;1082;-55
2024/02/09 03:11:50;;;;;;;;;;;;;;;15.99;45.61;100055.81;4900806;29;1190;-56
2024/02/09 03:14:15;;;;;;;;;;;;;;;15.76;45.03;100049.69;4896562;29;1991;-56
2024/02/09 03:16:41;;;;;;;;;;;;;;;15.53;44.96;100053.22;4900759;29;1121;-56
2024/02/09 03:19:08;;;;;;;;;;;;;;;16.06;45.30;100055.31;4896460;29;1081;-56
2024/02/09 03:21:35;;;;;;;;;;;;;;;17.55;43.19;100054.41;4891902;29;1101;-56
2024/02/09 03:24:01;;;;;;;;;;;;;;;16.08;45.86;100056.84;4887885;29;1071;-55
2024/02/09 03:26:26;;;;;;;;;;;;;;;15.74;45.53;100067.53;4890310;29;1158;-55
2024/02/09 03:28:52;;;;;;;;;;;;;;;16.62;45.30;100063.97;4881953;29;1098;-56
2024/02/09 03:31:17;;;;;;;;;;;;;;;16.77;44.63;100070.66;4881727;29;1175;-55
2024/02/09 03:33:43;;;;;;;;;;;;;;;16.04;45.74;100063.41;4894397;29;1907;-54
2024/02/09 03:36:09;;;;;;;;;;;;;;;15.74;45.53;100068.38;4891967;29;1104;-56
2024/02/09 03:38:37;;;;;;;;;;;;;;;15.62;45.28;100077.31;4884071;29;1241;-57
2024/02/09 03:41:03;;;;;;;;;;;;;;;17.25;43.81;100073.72;4892227;29;1129;-58
2024/02/09 03:43:29;;;;;;;;;;;;;;;15.91;46.22;100071.50;4900005;29;1057;-57
2024/02/09 03:45:54;;;;;;;;;;;;;;;15.65;45.58;100080.56;4900226;29;1150;-57
2024/02/09 03:48:20;;;;;;;;;;;;;;;16.83;45.16;100077.25;4899174;29;1153;-57
2024/02/09 03:50:46;;;;;;;;;;;;;;;17.23;43.69;100070.34;4894863;29;1239;-57
2024/02/09 03:53:15;;;;;;;;;;;;;;;16.10;45.73;100068.19;4903723;29;1066;-57
2024/02/09 03:55:40;;;;;;;;;;;;;;;15.83;45.32;100069.44;4892888;29;1938;-56
2024/02/09 03:58:06;;;;;;;;;;;;;;;16.39;45.73;100075.56;4889050;29;1086;-57
2024/02/09 04:00:31;;;;;;;;;;;;;;;17.19;43.66;100065.44;4892818;29;1070;-57
2024/02/09 04:02:57;;;;;;;;;;;;;;;16.63;45.74;100063.03;4884696;29;1099;-57
2024/02/09 04:05:22;;;;;;;;;;;;;;;18.57;41.25;100065.69;4884282;29;1397;-59
2024/02/09 04:07:49;;;;;;;;;;;;;;;17.18;43.64;100055.81;4897056;29;1133;-57
2024/02/09 04:10:14;;;;;;;;;;;;;;;16.36;45.48;100056.41;4884921;29;1038;-56
2024/02/09 04:12:40;;;;;;;;;;;;;;;16.00;45.15;100057.50;4888781;29;1122;-57
2024/02/09 04:15:05;;;;;;;;;;;;;;;15.79;45.46;100052.97;4902749;29;1914;-57
2024/02/09 04:17:31;;;;;;;;;;;;;;;15.77;45.00;100046.06;4903372;29;1081;-44
2024/02/09 04:19:57;;;;;;;;;;;;;;;16.73;44.77;100045.31;4890695;29;1129;-45
2024/02/09 04:22:22;;;;;;;;;;;;;;;15.91;45.86;100044.97;4884572;29;1094;-43
2024/02/09 04:24:50;;;;;;;;;;;;;;;15.66;45.73;100055.72;4884492;29;1149;-48
2024/02/09 04:27:17;;;;;;;;;;;;;;;17.53;43.57;100043.91;4897838;29;827;-48
2024/02/09 04:29:42;;;;;;;;;;;;;;;16.71;44.74;100052.59;4901966;29;1057;-49
2024/02/09 04:32:08;;;;;;;;;;;;;;;16.04;45.91;100055.44;4887667;29;1232;-46
2024/02/09 04:34:33;;;;;;;;;;;;;;;15.89;45.29;100046.88;4902349;29;1977;-46
2024/02/09 04:37:01;;;;;;;;;;;;;;;15.59;45.35;100051.91;4887020;29;1078;-46
2024/02/09 04:39:27;;;;;;;;;;;;;;;17.49;43.45;100047.78;4895673;29;1021;-47
2024/02/09 04:41:52;;;;;;;;;;;;;;;16.16;45.74;100058.91;4902446;29;1154;-55
2024/02/09 04:44:20;;;;;;;;;;;;;;;17.22;44.56;100052.75;4902878;29;1122;-50
2024/02/09 04:46:46;;;;;;;;;;;;;;;17.17;43.68;100048.78;4888444;29;2024;-51
2024/02/09 04:49:11;;;;;;;;;;;;;;;16.21;45.57;100058.50;4895589;29;1784;-54
2024/02/09 04:51:40;;;;;;;;;;;;;;;16.10;44.82;100054.94;4896744;29;1914;-52
2024/02/09 04:54:08;;;;;;;;;;;;;;;15.81;45.63;100055.47;4894589;29;2234;-49
2024/02/09 04:56:34;;;;;;;;;;;;;;;17.52;43.11;100049.34;4899017;29;1977;-45
2024/02/09 04:59:00;;;;;;;;;;;;;;;16.21;45.25;100059.38;4900747;29;1973;-50
2024/02/09 05:01:29;;;;;;;;;;;;;;;15.85;45.60;100059.56;4892600;29;1117;-47
2024/02/09 05:03:56;;;;;;;;;;;;;;;16.20;46.14;100062.16;4895546;29;1165;-44
2024/02/09 05:06:21;;;;;;;;;;;;;;;17.45;43.08;100065.00;4902436;29;1081;-47
2024/02/09 05:08:47;;;;;;;;;;;;;;;16.20;45.55;100076.25;4901951;29;1031;-48
2024/02/09 05:11:14;;;;;;;;;;;;;;;15.85;45.77;100072.81;4884041;29;1094;-50
2024/02/09 05:13:40;;;;;;;;;;;;;;;17.28;44.03;100072.63;4883332;29;1950;-48
2024/02/09 05:16:08;;;;;;;;;;;;;;;17.40;43.12;100077.84;4897512;29;940;-47
2024/02/09 05:18:34;;;;;;;;;;;;;;;17.05;44.03;100083.38;4901740;29;1111;-49
2024/02/09 05:21:00;;;;;;;;;;;;;;;16.92;44.27;100094.22;4896047;29;1479;-46
2024/02/09 05:23:25;;;;;;;;;;;;;;;16.78;44.44;100090.09;4890276;29;1008;-48
2024/02/09 05:25:51;;;;;;;;;;;;;;;16.59;44.65;100088.16;4902069;29;1093;-48
2024/02/09 05:28:16;;;;;;;;;;;;;;;16.38;44.99;100091.63;4900616;29;907;-50
2024/02/09 05:30:42;;;;;;;;;;;;;;;16.32;45.38;100090.31;4885225;29;2178;-50
2024/02/09 05:33:10;;;;;;;;;;;;;;;16.25;45.43;100095.28;4901789;29;1109;-46
2024/02/09 05:35:37;;;;;;;;;;;;;;;16.10;45.40;100102.69;4888236;29;2010;-49
2024/02/09 05:38:04;;;;;;;;;;;;;;;16.11;45.38;100104.38;4889833;29;1034;-51
2024/02/09 05:40:29;;;;;;;;;;;;;;;15.88;46.07;100091.13;4897927;29;1451;-51
2024/02/09 05:42:55;;;;;;;;;;;;;;;15.79;45.93;100094.53;4890317;29;1012;-50
2024/02/09 05:45:20;;;;;;;;;;;;;;;15.72;46.32;100093.31;4900067;29;974;-52
2024/02/09 05:47:46;;;;;;;;;;;;;;;15.61;46.57;100107.47;4890060;29;1023;-51
2024/02/09 05:50:11;;;;;;;;;;;;;;;15.43;46.75;100111.44;4899919;29;1226;-53
2024/02/09 05:52:37;;;;;;;;;;;;;;;15.40;46.96;100116.13;4899585;29;876;-51
2024/02/09 05:55:03;;;;;;;;;;;;;;;15.35;47.13;100123.63;4888868;29;1911;-49
2024/02/09 05:57:31;;;;;;;;;;;;;;;16.85;43.49;100128.44;4895498;29;1109;-52
2024/02/09 05:59:57;;;;;;;;;;;;;;;17.21;42.20;100127.28;4884280;29;1933;-51
2024/02/09 06:02:23;;;;;;;;;;;;;;;16.64;43.69;100131.09;4901521;29;1032;-51
2024/02/09 06:04:48;;;;;;;;;;;;;;;16.02;45.38;100136.97;4896448;29;884;-52
2024/02/09 06:07:14;;;;;;;;;;;;;;;15.78;45.73;100141.41;4901489;29;1105;-52
2024/02/09 06:09:39;;;;;;;;;;;;;;;15.63;45.84;100140.81;4900614;29;1043;-52
2024/02/09 06:12:05;;;;;;;;;;;;;;;15.41;46.71;100139.84;4901211;29;1115;-51
2024/02/09 06:14:31;;;;;;;;;;;;;;;15.60;45.96;100140.25;4888333;29;1903;-47
2024/02/09 06:16:56;;;;;;;;;;;;;;;15.88;45.75;100140.69;4900601;29;912;-49
2024/02/09 06:19:23;;;;;;;;;;;;;;;17.21;42.75;100145.91;4900769;29;991;-47
2024/02/09 06:21:49;;;;;;;;;;;;;;;16.47;43.91;100141.31;4889458;29;1078;-47
2024/02/09 06:24:14;;;;;;;;;;;;;;;15.99;45.31;100139.88;4901325;29;1030;-49
2024/02/09 06:26:40;;;;;;;;;;;;;;;15.78;45.63;100137.94;4900912;29;1386;-51
2024/02/09 06:29:07;;;;;;;;;;;;;;;15.60;45.98;100134.94;4896047;29;2009;-49
2024/02/09 06:31:36;;;;;;;;;;;;;;;15.46;46.70;100143.97;4900857;29;1348;-48
2024/02/09 06:34:01;;;;;;;;;;;;;;;15.31;46.78;100154.81;4898377;29;1899;-50
2024/02/09 06:36:27;;;;;;;;;;;;;;;16.65;43.89;100148.69;4896190;29;932;-54
2024/02/09 06:38:55;;;;;;;;;;;;;;;16.98;42.99;100157.47;4889753;29;993;-57
2024/02/09 06:41:21;;;;;;;;;;;;;;;16.25;44.26;100152.81;4909022;29;1147;-52
2024/02/09 06:43:47;;;;;;;;;;;;;;;15.85;45.56;100147.06;4895529;29;1258;-53
2024/02/09 06:46:16;;;;;;;;;;;;;;;15.74;45.89;100149.75;4900630;29;1371;-54
2024/02/09 06:48:42;;;;;;;;;;;;;;;15.49;46.32;100149.03;4901028;29;1145;-54
2024/02/09 06:51:07;;;;;;;;;;;;;;;15.45;46.41;100152.88;4900569;29;980;-54
2024/02/09 06:53:33;;;;;;;;;;;;;;;15.42;46.57;100160.13;4892611;29;1902;-53
2024/02/09 06:56:00;;;;;;;;;;;;;;;16.96;43.31;100155.94;4895751;29;1220;-51
2024/02/09 06:58:25;;;;;;;;;;;;;;;16.81;43.18;100148.28;4899208;29;1139;-53
2024/02/09 07:00:54;;;;;;;;;;;;;;;16.23;44.76;100152.94;4896798;29;2452;-53
2024/02/09 07:03:21;;;;;;;;;;;;;;;15.86;45.51;100150.59;4889208;29;943;-51
2024/02/09 07:05:49;;;;;;;;;;;;;;;15.70;45.88;100143.00;4881767;29;1151;-52
2024/02/09 07:08:30;;;;;;;;;;;;;;;15.67;46.08;100142.28;4894198;29;1114;-50
2024/02/09 07:10:55;;;;;;;;;;;;;;;15.39;46.51;100136.50;4882048;29;1004;-54
2024/02/09 07:13:21;;;;;;;;;;;;;;;15.75;45.94;100143.47;4896092;29;1027;-53
2024/02/09 07:15:46;;;;;;;;;;;;;;;17.08;42.87;100132.78;4899153;29;1915;-51
2024/02/09 07:18:12;;;;;;;;;;;;;;;16.65;43.81;100133.63;4896876;29;883;-55
2024/02/09 07:20:39;;;;;;;;;;;;;;;16.10;44.99;100133.72;4895935;29;1225;-52
2024/02/09 07:23:05;;;;;;;;;;;;;;;15.79;45.87;100134.31;4900601;29;959;-55
2024/02/09 07:25:31;;;;;;;;;;;;;;;15.61;46.23;100131.31;4891251;29;1185;-55
2024/02/09 07:27:57;;;;;;;;;;;;;;;15.47;46.24;100127.94;4894382;29;1062;-54
2024/02/09 07:30:25;;;;;;;;;;;;;;;15.54;46.39;100120.34;4894313;29;2103;-52
2024/02/09 07:32:51;;;;;;;;;;;;;;;16.95;43.32;100115.22;4903227;29;1331;-54
2024/02/09 07:35:16;;;;;;;;;;;;;;;16.70;43.62;100114.63;4899198;29;1903;-52
2024/02/09 07:37:42;;;;;;;;;;;;;;;16.01;45.02;100109.59;4898218;29;1332;-58
2024/02/09 07:40:08;;;;;;;;;;;;;;;15.81;45.41;100118.28;4894090;29;1147;-55
2024/02/09 07:42:33;;;;;;;;;;;;;;;15.62;46.12;100115.28;4899378;29;1489;-54
2024/02/09 07:44:59;;;;;;;;;;;;;;;15.47;46.35;100108.53;4903637;29;979;-51
2024/02/09 07:47:24;;;;;;;;;;;;;;;15.86;45.54;100110.81;4903244;29;1119;-49
2024/02/09 07:49:50;;;;;;;;;;;;;;;17.22;42.58;100111.22;4896810;29;1199;-51
2024/02/09 07:52:15;;;;;;;;;;;;;;;16.58;43.78;100111.19;4889749;29;1031;-51
2024/02/09 07:54:42;;;;;;;;;;;;;;;16.10;44.97;100115.13;4903386;29;1910;-54
2024/02/09 07:57:08;;;;;;;;;;;;;;;15.81;45.68;100113.81;4903165;29;1082;-52
2024/02/09 07:59:33;;;;;;;;;;;;;;;15.63;46.18;100118.78;4893635;29;2045;-55
2024/02/09 08:01:59;;;;;;;;;;;;;;;15.50;46.36;100110.94;4896743;29;1050;-52
2024/02/09 08:04:30;;;;;;;;;;;;;;;15.41;46.44;100108.03;4886919;29;1035;-53
2024/02/09 08:06:56;;;;;;;;;;;;;;;16.21;45.23;100107.13;4900933;29;1065;-53
2024/02/09 08:09:21;;;;;;;;;;;;;;;17.30;42.35;100112.38;4902930;29;1026;-52
2024/02/09 08:11:48;;;;;;;;;;;;;;;16.44;43.99;100116.81;4886622;29;1044;-49
2024/02/09 08:14:14;;;;;;;;;;;;;;;16.02;45.18;100115.72;4895020;29;1919;-52
2024/02/09 08:16:39;;;;;;;;;;;;;;;15.71;45.97;100108.41;4894660;29;1067;-52
2024/02/09 08:19:09;;;;;;;;;;;;;;;15.60;46.22;100114.56;4900378;29;1329;-50
2024/02/09 08:21:36;;;;;;;;;;;;;;;15.49;46.29;100114.56;4916958;29;1317;-49
2024/02/09 08:24:02;;;;;;;;;;;;;;;16.20;45.36;100116.03;4899750;29;1348;-53
2024/02/09 08:26:27;;;;;;;;;;;;;;;17.33;42.42;100104.13;4902322;29;1122;-50
2024/02/09 08:28:53;;;;;;;;;;;;;;;16.41;44.01;100109.97;4901389;29;1976;-57
2024/02/09 08:31:18;;;;;;;;;;;;;;;16.06;45.16;100108.38;4899643;29;1107;-56
2024/02/09 08:33:46;;;;;;;;;;;;;;;15.81;45.56;100099.72;4900861;29;1915;-56
2024/02/09 08:36:12;;;;;;;;;;;;;;;15.69;45.87;100090.94;4900534;29;1169;-49
2024/02/09 08:38:40;;;;;;;;;;;;;;;15.52;46.43;100099.25;4894662;29;1078;-51
2024/02/09 08:41:07;;;;;;;;;;;;;;;15.41;46.43;100097.44;4899636;29;1083;-50
2024/02/09 08:43:33;;;;;;;;;;;;;;;15.32;46.83;100097.31;4892363;29;1328;-53
2024/02/09 08:45:58;;;;;;;;;;;;;;;16.64;43.84;100107.19;4901576;29;1107;-52
2024/02/09 08:48:24;;;;;;;;;;;;;;;17.23;42.24;100106.75;4902834;29;1042;-54
2024/02/09 08:50:49;;;;;;;;;;;;;;;16.28;44.67;100115.44;4893785;29;1042;-55
2024/02/09 08:53:15;;;;;;;;;;;;;;;15.96;45.48;100111.75;4886182;29;1161;-55
2024/02/09 08:55:41;;;;;;;;;;;;;;;15.72;45.63;100102.13;4895840;29;2225;-53
2024/02/09 08:58:09;;;;;;;;;;;;;;;15.63;45.95;100109.00;4885043;29;1269;-56
2024/02/09 09:00:34;;;;;;;;;;;;;;;15.45;46.60;100090.09;4894306;29;2327;-55
2024/02/09 09:03:00;;;;;;;;;;;;;;;15.43;46.35;100092.88;4901698;29;1083;-52
2024/02/09 09:05:26;;;;;;;;;;;;;;;16.91;43.38;100097.03;4890868;29;1355;-55
2024/02/09 09:07:52;;;;;;;;;;;;;;;16.87;42.85;100094.63;4901982;29;1035;-51
2024/02/09 09:10:17;;;;;;;;;;;;;;;16.17;44.84;100103.03;4902128;29;1280;-50
2024/02/09 09:12:43;;;;;;;;;;;;;;;15.84;45.62;100100.31;4902110;29;1071;-49
2024/02/09 09:15:08;;;;;;;;;;;;;;;15.68;45.97;100082.16;4915238;29;1919;-53
2024/02/09 09:17:34;;;;;;;;;;;;;;;15.55;45.98;100090.22;4901463;29;1102;-53
2024/02/09 09:20:00;;;;;;;;;;;;;;;15.46;46.43;100086.50;4902022;29;1315;-50
2024/02/09 09:22:25;;;;;;;;;;;;;;;16.54;44.35;100083.22;4901096;29;1296;-47
2024/02/09 09:24:51;;;;;;;;;;;;;;;17.16;42.69;100079.84;4902236;29;1351;-52
2024/02/09 09:27:18;;;;;;;;;;;;;;;16.25;44.44;100081.16;4901887;29;1336;-49
2024/02/09 09:29:44;;;;;;;;;;;;;;;15.95;45.40;100078.22;4890128;29;1918;-50
2024/02/09 09:32:10;;;;;;;;;;;;;;;15.76;45.87;100071.78;4898530;29;1134;-51
2024/02/09 09:34:35;;;;;;;;;;;;;;;15.58;46.11;100068.75;4901052;29;1977;-51
2024/02/09 09:37:03;;;;;;;;;;;;;;;15.45;46.69;100060.94;4901040;29;1215;-53
2024/02/09 09:39:29;;;;;;;;;;;;;;;16.19;45.15;100060.44;4899907;29;1510;-54
2024/02/09 09:41:55;;;;;;;;;;;;;;;17.20;42.50;100064.50;4901457;29;1105;-55
2024/02/09 09:44:26;;;;;;;;;;;;;;;16.27;44.40;100058.00;4894008;29;1007;-51
2024/02/09 09:46:52;;;;;;;;;;;;;;;15.94;45.53;100051.81;4895168;29;1244;-52
2024/02/09 09:49:17;;;;;;;;;;;;;;;15.81;45.75;100051.97;4894031;29;1220;-54
2024/02/09 09:51:47;;;;;;;;;;;;;;;15.57;45.99;100039.72;4882673;29;864;-56
2024/02/09 09:54:13;;;;;;;;;;;;;;;15.43;46.62;100044.34;4896978;29;1911;-55
2024/02/09 09:56:39;;;;;;;;;;;;;;;16.14;45.41;100050.22;4893865;29;1132;-54
2024/02/09 09:59:05;;;;;;;;;;;;;;;17.35;42.26;100039.22;4916015;29;2036;-57
2024/02/09 10:01:30;;;;;;;;;;;;;;;16.55;43.88;100036.28;4888797;29;1094;-54
2024/02/09 10:03:56;;;;;;;;;;;;;;;16.07;44.98;100036.63;4912619;29;1138;-54
2024/02/09 10:06:23;;;;;;;;;;;;;;;15.78;45.84;100037.16;4884856;29;938;-52
2024/02/09 10:08:49;;;;;;;;;;;;;;;15.62;46.35;100035.75;4894656;29;1015;-50
2024/02/09 10:11:15;;;;;;;;;;;;;;;15.50;46.21;100034.91;4895066;29;1131;-51
2024/02/09 10:13:41;;;;;;;;;;;;;;;15.41;46.43;100023.22;4882703;29;1992;-54
2024/02/09 10:16:06;;;;;;;;;;;;;;;16.34;45.02;100013.22;4882745;29;1027;-56
2024/02/09 10:18:33;;;;;;;;;;;;;;;17.33;42.34;100003.13;4906289;29;1372;-55
2024/02/09 10:20:59;;;;;;;;;;;;;;;16.52;44.00;100006.34;4899840;29;944;-54
2024/02/09 10:23:27;;;;;;;;;;;;;;;16.00;45.17;99993.81;4900799;29;1086;-51
2024/02/09 10:25:55;;;;;;;;;;;;;;;15.79;45.94;99986.66;4888277;29;1050;-55
2024/02/09 10:28:23;;;;;;;;;;;;;;;15.67;46.39;99985.00;4883764;29;1097;-49
2024/02/09 10:30:49;;;;;;;;;;;;;;;15.45;46.27;99977.94;4895200;29;2232;-55
2024/02/09 10:33:14;;;;;;;;;;;;;;;15.43;46.45;99981.56;4900690;29;1050;-51
2024/02/09 10:35:40;;;;;;;;;;;;;;;15.89;45.45;99978.78;4901122;29;1911;-53
2024/02/09 10:38:05;;;;;;;;;;;;;;;17.23;42.60;99976.50;4900535;29;1336;-54
2024/02/09 10:40:33;;;;;;;;;;;;;;;16.85;43.25;99969.06;4895744;29;1168;-55
2024/02/09 10:42:59;;;;;;;;;;;;;;;16.26;44.48;99963.44;4896169;29;952;-51
2024/02/09 10:45:25;;;;;;;;;;;;;;;16.00;45.25;99955.84;4896161;29;1355;-53
2024/02/09 10:47:54;;;;;;;;;;;;;;;15.74;45.62;99954.38;4900514;29;1089;-54
2024/02/09 10:50:19;;;;;;;;;;;;;;;15.63;46.03;99947.28;4900413;29;1340;-51
2024/02/09 10:52:48;;;;;;;;;;;;;;;15.51;46.44;99949.16;4896526;29;1403;-53
2024/02/09 10:55:14;;;;;;;;;;;;;;;15.48;46.47;99940.59;4898360;29;1918;-52
2024/02/09 10:57:41;;;;;;;;;;;;;;;16.88;43.38;99933.44;4919106;29;1308;-56
2024/02/09 11:00:10;;;;;;;;;;;;;;;16.92;43.30;99931.31;4902197;29;1996;-56
2024/02/09 11:02:36;;;;;;;;;;;;;;;16.23;44.55;99924.72;4896083;29;1007;-53
2024/02/09 11:05:01;;;;;;;;;;;;;;;15.96;45.06;99925.22;4895305;29;897;-56
2024/02/09 11:07:27;;;;;;;;;;;;;;;15.76;45.63;99915.31;4890854;29;1062;-52
2024/02/09 11:09:52;;;;;;;;;;;;;;;15.67;45.92;99926.66;4884993;29;1051;-52
2024/02/09 11:12:19;;;;;;;;;;;;;;;15.47;46.47;99915.03;4888446;29;1016;-56
2024/02/09 11:14:44;;;;;;;;;;;;;;;15.47;46.75;99915.03;4898182;29;1943;-53
2024/02/09 11:17:10;;;;;;;;;;;;;;;16.93;43.40;99906.47;4895801;29;1035;-56
2024/02/09 11:19:37;;;;;;;;;;;;;;;16.95;42.91;99905.34;4897769;29;1072;-54
2024/02/09 11:22:04;;;;;;;;;;;;;;;16.24;44.84;99891.06;4903805;29;1193;-49
2024/02/09 11:24:30;;;;;;;;;;;;;;;15.94;45.59;99888.22;4904523;29;1038;-55
2024/02/09 11:26:59;;;;;;;;;;;;;;;15.86;45.57;99891.50;4904274;29;1057;-56
2024/02/09 11:29:24;;;;;;;;;;;;;;;15.67;46.02;99887.75;4903074;29;2155;-57
2024/02/09 11:31:50;;;;;;;;;;;;;;;15.50;46.19;99898.88;4918941;29;1134;-53
2024/02/09 11:34:16;;;;;;;;;;;;;;;15.74;46.01;99873.97;4903729;29;1907;-54
2024/02/09 11:36:43;;;;;;;;;;;;;;;17.13;42.74;99881.63;4903479;29;1074;-51
2024/02/09 11:39:10;;;;;;;;;;;;;;;16.75;43.54;99877.88;4895274;29;1348;-50
2024/02/09 11:41:35;;;;;;;;;;;;;;;16.16;44.73;99881.13;4896711;29;1379;-50
2024/02/09 11:44:01;;;;;;;;;;;;;;;15.91;45.20;99876.03;4903709;29;1158;-46
2024/02/09 11:46:27;;;;;;;;;;;;;;;15.79;45.89;99875.28;4903574;29;1272;-56
2024/02/09 11:48:52;;;;;;;;;;;;;;;15.66;46.05;99882.56;4903741;29;1059;-54
2024/02/09 11:51:20;;;;;;;;;;;;;;;15.51;46.53;99879.38;4902839;29;1315;-55
2024/02/09 11:53:48;;;;;;;;;;;;;;;15.48;46.56;99883.09;4899974;29;1907;-50
2024/02/09 11:56:14;;;;;;;;;;;;;;;16.66;43.80;99876.88;4896940;29;1074;-51
2024/02/09 11:58:41;;;;;;;;;;;;;;;16.94;43.15;99879.75;4917426;29;2048;-51
2024/02/09 12:01:07;;;;;;;;;;;;;;;16.21;44.71;99880.72;4902411;29;1030;-54
2024/02/09 12:03:33;;;;;;;;;;;;;;;15.94;45.17;99893.50;4914604;29;1344;-55
2024/02/09 12:06:02;;;;;;;;;;;;;;;15.74;45.89;99893.38;4889644;29;1115;-55
2024/02/09 12:08:29;;;;;;;;;;;;;;;15.66;46.14;99904.59;4911316;29;1324;-55
2024/02/09 12:10:56;;;;;;;;;;;;;;;15.51;46.08;99908.53;4895166;29;1014;-56
2024/02/09 12:13:22;;;;;;;;;;;;;;;16.06;45.22;99910.25;4896368;29;1115;-56
2024/02/09 12:15:48;;;;;;;;;;;;;;;17.31;42.15;99907.56;4903055;29;1906;-56
2024/02/09 12:18:13;;;;;;;;;;;;;;;16.48;43.87;99916.50;4892673;29;1062;-55
2024/02/09 12:20:39;;;;;;;;;;;;;;;16.07;44.85;99905.75;4915499;29;1393;-56
2024/02/09 12:23:05;;;;;;;;;;;;;;;15.84;45.19;99888.16;4902773;29;1104;-55
2024/02/09 12:25:37;;;;;;;;;;;;;;;15.67;45.77;99894.84;4898895;29;1161;-56
2024/02/09 12:28:09;;;;;;;;;;;;;;;15.51;46.32;99893.47;4908741;29;1087;-54
2024/02/09 12:30:35;;;;;;;;;;;;;;;15.45;46.29;99893.13;4893155;29;1912;-52
2024/02/09 12:33:01;;;;;;;;;;;;;;;16.20;44.59;99892.31;4902995;29;1034;-51
2024/02/09 12:35:28;;;;;;;;;;;;;;;17.37;42.12;99890.19;4890273;29;1906;-53
2024/02/09 12:37:56;;;;;;;;;;;;;;;16.65;43.41;99880.50;4902842;29;1268;-54
2024/02/09 12:40:21;;;;;;;;;;;;;;;16.14;44.74;99886.56;4900173;29;1163;-51
2024/02/09 12:42:47;;;;;;;;;;;;;;;15.94;45.08;99885.56;4902551;29;972;-46
2024/02/09 12:45:13;;;;;;;;;;;;;;;15.78;45.69;99896.63;4901626;29;1313;-52
2024/02/09 12:47:38;;;;;;;;;;;;;;;15.63;46.04;99894.25;4902723;29;1519;-54
2024/02/09 12:50:04;;;;;;;;;;;;;;;15.51;46.11;99898.78;4898707;29;1692;-49
2024/02/09 12:52:31;;;;;;;;;;;;;;;15.41;46.22;99911.91;4901890;29;1368;-51
2024/02/09 12:54:56;;;;;;;;;;;;;;;16.38;44.38;99903.16;4896143;29;1976;-56
2024/02/09 12:57:22;;;;;;;;;;;;;;;17.30;41.95;99902.38;4896065;29;1209;-55
2024/02/09 12:59:48;;;;;;;;;;;;;;;16.44;43.98;99907.94;4901374;29;2135;-48
2024/02/09 13:02:15;;;;;;;;;;;;;;;16.02;44.79;99908.81;4900740;29;1314;-55
2024/02/09 13:04:41;;;;;;;;;;;;;;;15.82;45.67;99910.44;4901634;29;1285;-51
2024/02/09 13:07:06;;;;;;;;;;;;;;;15.66;45.72;99904.59;4892545;29;1078;-51
2024/02/09 13:09:35;;;;;;;;;;;;;;;15.59;45.72;99907.88;4900467;29;1113;-45
2024/02/09 13:12:01;;;;;;;;;;;;;;;15.46;46.27;99908.06;4902273;29;1073;-46
2024/02/09 13:14:26;;;;;;;;;;;;;;;16.06;45.28;99906.75;4901808;29;1901;-52
2024/02/09 13:16:52;;;;;;;;;;;;;;;17.30;42.23;99900.53;4902340;29;1323;-52
2024/02/09 13:19:22;;;;;;;;;;;;;;;16.67;43.27;99906.91;4901547;29;1300;-54
2024/02/09 13:22:01;;;;;;;;;;;;;;;16.10;44.88;99903.69;4901719;29;1331;-51
2024/02/09 13:24:27;;;;;;;;;;;;;;;15.82;45.36;99903.34;4898799;29;1372;-53
2024/02/09 13:26:53;;;;;;;;;;;;;;;15.66;45.53;99904.59;4895878;29;1041;-53
2024/02/09 13:29:24;;;;;;;;;;;;;;;15.54;45.96;99906.47;4901879;29;1197;-54
2024/02/09 13:31:53;;;;;;;;;;;;;;;15.42;46.25;99902.16;4901847;29;975;-54
2024/02/09 13:34:19;;;;;;;;;;;;;;;16.16;45.09;99905.81;4901128;29;1980;-55
2024/02/09 13:36:45;;;;;;;;;;;;;;;17.34;42.34;99909.09;4901589;29;1296;-55
2024/02/09 13:39:10;;;;;;;;;;;;;;;16.47;43.90;99902.38;4901462;29;1149;-55
2024/02/09 13:41:36;;;;;;;;;;;;;;;16.12;44.59;99904.41;4902042;29;1157;-56
2024/02/09 13:44:02;;;;;;;;;;;;;;;15.82;45.58;99907.78;4888844;29;1694;-54
2024/02/09 13:46:27;;;;;;;;;;;;;;;15.66;45.91;99904.59;4901566;29;1395;-55
2024/02/09 13:48:53;;;;;;;;;;;;;;;15.57;46.22;99908.03;4901703;29;1248;-55
2024/02/09 13:51:19;;;;;;;;;;;;;;;15.47;46.40;99910.59;4901746;29;1061;-53
2024/02/09 13:53:47;;;;;;;;;;;;;;;15.69;45.83;99898.22;4915777;29;1980;-56
2024/02/09 13:56:15;;;;;;;;;;;;;;;17.05;42.65;99915.97;4890357;29;1223;-54
2024/02/09 13:58:45;;;;;;;;;;;;;;;16.79;43.16;99920.94;4890066;29;1032;-53
2024/02/09 14:01:14;;;;;;;;;;;;;;;16.15;44.71;99906.81;4888870;29;1874;-52
2024/02/09 14:03:41;;;;;;;;;;;;;;;15.91;44.95;99915.00;4899482;29;1348;-49
2024/02/09 14:06:07;;;;;;;;;;;;;;;15.66;45.83;99909.91;4888554;29;1050;-50
2024/02/09 14:08:33;;;;;;;;;;;;;;;15.62;45.70;99905.84;4887933;29;1095;-52
2024/02/09 14:10:58;;;;;;;;;;;;;;;15.49;46.21;99913.13;4899361;29;1178;-53
2024/02/09 14:13:24;;;;;;;;;;;;;;;16.08;45.03;99902.97;4898866;29;1085;-53
2024/02/09 14:15:50;;;;;;;;;;;;;;;17.31;42.09;99910.22;4900276;29;1898;-50
2024/02/09 14:18:17;;;;;;;;;;;;;;;16.55;43.72;99898.22;4898598;29;1339;-54
2024/02/09 14:20:46;;;;;;;;;;;;;;;16.02;44.80;99891.09;4900235;29;1383;-49
2024/02/09 14:23:12;;;;;;;;;;;;;;;15.81;45.41;99893.72;4894494;29;1323;-55
2024/02/09 14:25:38;;;;;;;;;;;;;;;15.72;45.94;99891.81;4885751;29;1302;-54
2024/02/09 14:28:03;;;;;;;;;;;;;;;15.55;46.21;99888.75;4901625;29;1118;-55
2024/02/09 14:30:29;;;;;;;;;;;;;;;15.51;46.12;99885.53;4895816;29;2513;-55
2024/02/09 14:32:54;;;;;;;;;;;;;;;16.88;43.38;99888.28;4900658;29;1002;-51
2024/02/09 14:35:20;;;;;;;;;;;;;;;17.02;42.59;99881.72;4911240;29;1899;-55